Time;durP1;ratioP1;P1;durP2;ratioP2;P2;SDS_P1;SDS_P2;PMS_P1;PMS_P2;Temp;Humidity;BMP_temperature;BMP_pressure;BME280_temperature;BME280_humidity;BME280_pressure;Samples;Min_cycle;Max_cycle;Signal;HPM_P1;HPM_P2
2022/01/05 00:00:49;;;;;;;24.60;11.28;;;;;;;2.00;100.00;99437.36;1772896;80;21742;-79
2022/01/05 00:03:54;;;;;;;18.40;10.93;;;;;;;2.04;100.00;99437.42;1792743;80;21260;-79
2022/01/05 00:07:00;;;;;;;18.07;10.88;;;;;;;2.06;100.00;99439.47;1791905;80;21280;-82
2022/01/05 00:10:00;;;;;;;23.83;11.83;;;;;;;2.05;100.00;99438.63;1793509;80;21280;-82
2022/01/05 00:13:06;;;;;;;18.70;10.78;;;;;;;2.10;100.00;99436.00;1791640;80;21161;-82
2022/01/05 00:16:12;;;;;;;20.23;11.35;;;;;;;2.24;100.00;99432.35;1792723;80;21304;-82
2022/01/05 00:19:17;;;;;;;21.93;12.58;;;;;;;2.29;100.00;99427.37;1793360;80;21205;-80
2022/01/05 00:22:22;;;;;;;23.87;13.72;;;;;;;2.26;100.00;99420.09;1793005;80;21300;-80
2022/01/05 00:25:27;;;;;;;26.45;14.83;;;;;;;2.20;100.00;99418.80;1793188;80;21288;-80
2022/01/05 00:28:32;;;;;;;23.80;13.75;;;;;;;2.09;100.00;99416.27;1793296;80;21265;-81
2022/01/05 00:31:37;;;;;;;19.37;11.80;;;;;;;2.00;100.00;99406.34;1796107;80;21307;-82
2022/01/05 00:34:42;;;;;;;17.23;11.35;;;;;;;1.95;100.00;99395.98;1796294;80;21260;-83
2022/01/05 00:37:48;;;;;;;26.45;13.45;;;;;;;1.94;100.00;99395.63;1796298;80;21287;-80
2022/01/05 00:40:52;;;;;;;25.30;14.05;;;;;;;1.98;100.00;99388.11;1796384;80;21288;-79
2022/01/05 00:43:58;;;;;;;26.48;13.53;;;;;;;2.00;100.00;99386.95;1796416;80;21130;-81
2022/01/05 00:47:03;;;;;;;23.87;14.10;;;;;;;2.04;100.00;99391.07;1796359;80;21205;-80
2022/01/05 00:50:07;;;;;;;27.73;13.48;;;;;;;2.05;100.00;99389.22;1796324;80;21268;-83
2022/01/05 00:53:13;;;;;;;22.70;14.95;;;;;;;2.01;100.00;99391.34;1796064;80;21216;-80
2022/01/05 00:56:19;;;;;;;23.20;12.75;;;;;;;2.02;100.00;99389.50;1795577;80;21351;-80
2022/01/05 00:59:25;;;;;;;20.88;12.40;;;;;;;2.03;100.00;99384.48;1794668;80;21156;-79
2022/01/05 01:02:33;;;;;;;20.52;12.07;;;;;;;2.02;100.00;99380.06;1794799;80;21781;-79
2022/01/05 01:05:39;;;;;;;19.42;11.90;;;;;;;2.02;100.00;99377.36;1795931;80;21508;-78
2022/01/05 01:08:45;;;;;;;23.87;12.95;;;;;;;2.02;100.00;99377.36;1795817;80;21292;-82
2022/01/05 01:11:50;;;;;;;21.55;12.23;;;;;;;2.04;100.00;99375.39;1795132;80;21338;-79
2022/01/05 01:14:55;;;;;;;21.27;11.57;;;;;;;2.07;100.00;99366.14;1796174;80;21857;-79
2022/01/05 01:18:01;;;;;;;18.60;11.97;;;;;;;2.07;100.00;99372.41;1794790;80;21425;-78
2022/01/05 01:21:07;;;;;;;20.10;12.45;;;;;;;2.05;100.00;99378.43;1795663;80;21316;-83
2022/01/05 01:24:12;;;;;;;15.93;10.88;;;;;;;2.09;100.00;99386.59;1796458;80;21284;-83
2022/01/05 01:27:17;;;;;;;21.25;11.55;;;;;;;2.11;100.00;99376.49;1796324;80;21331;-83
2022/01/05 01:30:21;;;;;;;20.65;12.33;;;;;;;2.08;100.00;99359.77;1796186;80;21307;-82
2022/01/05 01:33:26;;;;;;;19.95;13.03;;;;;;;2.02;100.00;99358.01;1793417;80;21130;-81
2022/01/05 01:36:31;;;;;;;20.95;12.73;;;;;;;2.00;100.00;99361.83;1793224;80;21169;-83
2022/01/05 01:39:37;;;;;;;19.92;11.53;;;;;;;1.98;100.00;99365.19;1793231;80;21189;-81
2022/01/05 01:42:42;;;;;;;19.23;12.37;;;;;;;1.95;100.00;99357.38;1793274;80;21276;-79
2022/01/05 01:45:47;;;;;;;19.42;11.35;;;;;;;1.95;100.00;99341.19;1793295;80;21850;-79
2022/01/05 01:48:52;;;;;;;20.40;11.60;;;;;;;1.93;100.00;99330.56;1793382;80;21264;-82
2022/01/05 01:51:56;;;;;;;16.07;10.78;;;;;;;1.91;100.00;99318.20;1793515;80;21715;-79
2022/01/05 01:55:02;;;;;;;16.45;9.85;;;;;;;1.90;100.00;99323.25;1793347;80;21284;-83
2022/01/05 01:58:07;;;;;;;15.55;10.28;;;;;;;1.94;100.00;99313.38;1753022;82;21170;-83
2022/01/05 02:01:12;;;;;;;14.40;9.83;;;;;;;1.97;100.00;99309.02;1792804;80;21193;-83
2022/01/05 02:04:18;;;;;;;19.00;10.93;;;;;;;1.96;100.00;99305.13;1793248;80;21802;-78
2022/01/05 02:07:23;;;;;;;23.47;11.78;;;;;;;1.96;100.00;99297.88;1791725;80;21304;-77
2022/01/05 02:10:30;;;;;;;21.42;12.85;;;;;;;1.99;100.00;99300.80;1792108;80;21312;-78
2022/01/05 02:13:36;;;;;;;20.43;12.25;;;;;;;2.01;100.00;99292.05;1793127;80;21130;-77
2022/01/05 02:16:44;;;;;;;16.45;10.63;;;;;;;2.03;100.00;99288.22;1792169;80;21829;-77
2022/01/05 02:19:49;;;;;;;18.32;10.65;;;;;;;2.05;100.00;99279.47;1793040;80;21901;-81
2022/01/05 02:22:56;;;;;;;17.42;10.82;;;;;;;2.04;100.00;99273.73;1793012;80;21161;-79
2022/01/05 02:26:01;;;;;;;19.55;11.40;;;;;;;2.04;100.00;99270.19;1792062;80;21165;-82
2022/01/05 02:29:06;;;;;;;18.35;10.45;;;;;;;2.04;100.00;99262.94;1791895;80;21305;-78
2022/01/05 02:32:13;;;;;;;17.55;11.30;;;;;;;2.07;100.00;99254.19;1793186;79;21473;-83
2022/01/05 02:35:20;;;;;;;16.52;10.05;;;;;;;2.07;100.00;99241.58;1796236;80;21165;-77
2022/01/05 02:38:29;;;;;;;23.20;11.28;;;;;;;2.10;100.00;99247.16;1795441;80;21282;-82
2022/01/05 02:41:35;;;;;;;18.65;10.90;;;;;;;2.10;100.00;99236.37;1796078;80;21268;-78
2022/01/05 02:44:40;;;;;;;20.43;10.78;;;;;;;2.05;100.00;99224.17;1796360;80;21185;-84
2022/01/05 02:47:48;;;;;;;15.18;9.65;;;;;;;2.08;100.00;99223.04;1794841;80;21182;-78
2022/01/05 02:50:53;;;;;;;14.85;9.60;;;;;;;2.12;100.00;99223.09;1745870;81;21315;-84
2022/01/05 02:53:58;;;;;;;15.98;9.65;;;;;;;2.18;100.00;99214.90;1745586;82;21276;-81
2022/01/05 02:57:04;;;;;;;17.00;9.75;;;;;;;2.26;100.00;99205.56;1745218;82;21157;-78
2022/01/05 03:00:10;;;;;;;17.75;10.98;;;;;;;2.30;100.00;99210.48;1744011;82;21718;-84
2022/01/05 03:03:15;;;;;;;20.62;10.08;;;;;;;2.32;100.00;99213.05;1714659;83;22210;-77
2022/01/05 03:06:22;;;;;;;18.45;9.65;;;;;;;2.28;100.00;99203.05;1708529;82;21889;-83
2022/01/05 03:09:28;;;;;;;19.23;9.13;;;;;;;2.26;100.00;99196.97;1707797;84;21346;-83
2022/01/05 03:12:34;;;;;;;21.65;10.25;;;;;;;2.24;100.00;99178.71;1689560;84;21495;-84
2022/01/05 03:15:40;;;;;;;21.93;10.40;;;;;;;2.25;100.00;99175.01;1690604;85;21241;-84
2022/01/05 03:18:47;;;;;;;15.40;10.03;;;;;;;2.23;100.00;99174.83;1690196;85;21666;-78
2022/01/05 03:21:53;;;;;;;18.00;10.15;;;;;;;2.24;100.00;99173.31;1689918;85;21218;-84
2022/01/05 03:24:58;;;;;;;15.32;9.88;;;;;;;2.27;100.00;99177.07;1691069;85;21715;-77
2022/01/05 03:28:04;;;;;;;20.88;10.88;;;;;;;2.32;100.00;99175.77;1709020;84;21358;-84
2022/01/05 03:31:10;;;;;;;16.25;9.20;;;;;;;2.32;100.00;99190.11;1690443;85;21356;-84
2022/01/05 03:34:19;;;;;;;14.25;9.35;;;;;;;2.34;100.00;99180.00;1740084;81;21371;-84
2022/01/05 03:37:24;;;;;;;17.45;9.40;;;;;;;2.36;100.00;99192.86;1709006;84;21209;-84
2022/01/05 03:40:31;;;;;;;17.20;8.80;;;;;;;2.35;100.00;99187.59;1708921;84;21220;-78
2022/01/05 03:43:36;;;;;;;19.00;8.95;;;;;;;2.36;100.00;99183.92;1710350;84;21284;-78
2022/01/05 03:46:42;;;;;;;19.42;8.78;;;;;;;2.39;100.00;99179.55;1709525;84;21896;-84
2022/01/05 03:49:52;;;;;;;16.55;9.03;;;;;;;2.43;100.00;99180.95;1709379;84;21379;-78
2022/01/05 03:52:56;;;;;;;13.05;7.58;;;;;;;2.47;100.00;99182.34;1710408;84;21328;-84
2022/01/05 03:56:02;;;;;;;10.80;6.47;;;;;;;2.52;100.00;99173.29;1709927;84;21362;-78
2022/01/05 03:59:07;;;;;;;11.83;6.10;;;;;;;2.59;100.00;99167.64;1709964;84;21857;-77
2022/01/05 04:02:13;;;;;;;13.53;6.00;;;;;;;2.66;100.00;99148.97;1708940;84;21320;-85
2022/01/05 04:05:19;;;;;;;10.55;5.40;;;;;;;2.71;100.00;99150.19;1710224;84;21280;-77
2022/01/05 04:08:24;;;;;;;14.60;6.67;;;;;;;2.74;100.00;99156.64;1710312;84;21336;-79
2022/01/05 04:11:31;;;;;;;11.75;5.50;;;;;;;2.74;100.00;99164.75;1709738;84;21355;-84
2022/01/05 04:14:37;;;;;;;9.98;5.60;;;;;;;2.72;100.00;99155.09;1710317;84;21825;-78
2022/01/05 04:17:43;;;;;;;10.63;5.70;;;;;;;2.70;100.00;99146.31;1709077;84;21196;-77
2022/01/05 04:20:48;;;;;;;11.43;6.08;;;;;;;2.66;100.00;99159.27;1709360;84;21763;-78
2022/01/05 04:23:53;;;;;;;10.05;5.35;;;;;;;2.66;100.00;99135.47;1710476;84;21183;-84
2022/01/05 04:26:59;;;;;;;12.60;4.95;;;;;;;2.66;100.00;99129.56;1710381;84;21292;-84
2022/01/05 04:30:04;;;;;;;10.20;5.08;;;;;;;2.68;100.00;99130.27;1710545;84;21339;-84
2022/01/05 04:33:09;;;;;;;10.18;4.90;;;;;;;2.68;100.00;99111.84;1710618;84;21321;-78
2022/01/05 04:36:15;;;;;;;8.85;4.17;;;;;;;2.68;100.00;99141.55;1704192;84;21328;-78
2022/01/05 04:39:20;;;;;;;14.03;5.25;;;;;;;2.71;100.00;99143.95;1705249;84;21206;-84
2022/01/05 04:42:26;;;;;;;10.90;4.47;;;;;;;2.76;100.00;99123.57;1705274;84;21829;-81
2022/01/05 04:45:32;;;;;;;9.65;4.20;;;;;;;2.81;100.00;99111.80;1705152;84;21230;-78
2022/01/05 04:48:37;;;;;;;10.55;4.75;;;;;;;2.86;100.00;99113.19;1705211;84;21289;-78
2022/01/05 04:51:43;;;;;;;11.60;4.90;;;;;;;2.87;100.00;99095.97;1705118;84;21242;-79
2022/01/05 04:54:50;;;;;;;11.00;4.75;;;;;;;2.85;100.00;99083.14;1705099;84;21884;-79
2022/01/05 04:57:56;;;;;;;12.05;4.25;;;;;;;2.78;100.00;99070.78;1705242;84;21845;-85
2022/01/05 05:01:00;;;;;;;8.10;4.35;;;;;;;2.75;100.00;99082.73;1704967;84;21369;-79
2022/01/05 05:04:06;;;;;;;9.60;4.22;;;;;;;2.76;100.00;99079.02;1705148;84;21170;-85
2022/01/05 05:07:10;;;;;;;8.50;3.83;;;;;;;2.76;100.00;99079.02;1705143;84;21327;-84
2022/01/05 05:10:15;;;;;;;10.82;4.40;;;;;;;2.77;100.00;99052.86;1705122;84;21202;-78
2022/01/05 05:13:21;;;;;;;7.60;3.62;;;;;;;2.76;100.00;99061.97;1705066;84;21349;-78
2022/01/05 05:16:26;;;;;;;11.90;4.75;;;;;;;2.75;100.00;99090.83;1705100;84;21324;-84
2022/01/05 05:19:31;;;;;;;17.45;6.75;;;;;;;2.77;100.00;99083.41;1705107;84;21288;-78
2022/01/05 05:22:36;;;;;;;15.05;5.65;;;;;;;2.80;100.00;99085.80;1705164;84;21288;-84
2022/01/05 05:25:42;;;;;;;8.83;4.60;;;;;;;2.82;100.00;99066.73;1705147;84;21225;-84
2022/01/05 05:28:47;;;;;;;12.50;5.22;;;;;;;2.81;100.00;99057.78;1704990;84;21202;-84
2022/01/05 05:31:51;;;;;;;11.33;4.75;;;;;;;2.81;100.00;99082.59;1704209;84;21624;-78
2022/01/05 05:34:57;;;;;;;22.65;6.97;;;;;;;2.83;100.00;99081.11;1706553;83;21341;-79
2022/01/05 05:38:03;;;;;;;10.65;5.97;;;;;;;2.84;100.00;99086.84;1715651;83;21295;-84
2022/01/05 05:41:10;;;;;;;10.00;5.05;;;;;;;2.87;100.00;99087.39;1715200;83;21322;-84
2022/01/05 05:44:16;;;;;;;12.65;5.37;;;;;;;2.85;100.00;99080.44;1706545;84;21856;-78
2022/01/05 05:47:22;;;;;;;10.05;4.50;;;;;;;2.82;100.00;99077.53;1712472;84;21924;-84
2022/01/05 05:50:28;;;;;;;7.35;3.83;;;;;;;2.79;100.00;99094.92;1698122;84;21311;-78
2022/01/05 05:53:33;;;;;;;10.65;3.58;;;;;;;2.78;100.00;99091.88;1697797;84;21281;-84
2022/01/05 05:56:38;;;;;;;10.15;3.65;;;;;;;2.81;100.00;99092.89;1698239;84;21343;-77
2022/01/05 05:59:43;;;;;;;6.92;3.27;;;;;;;2.85;100.00;99080.44;1698248;84;22093;-78
2022/01/05 06:02:49;;;;;;;10.63;3.15;;;;;;;2.87;100.00;99074.36;1698334;84;21170;-80
2022/01/05 06:05:55;;;;;;;8.18;3.05;;;;;;;2.90;100.00;99073.55;1698270;84;21217;-84
2022/01/05 06:09:01;;;;;;;7.03;3.05;;;;;;;2.90;100.00;99062.75;1698259;84;21166;-77
2022/01/05 06:12:06;;;;;;;7.62;3.25;;;;;;;2.92;100.00;99064.81;1698027;84;21320;-77
2022/01/05 06:15:12;;;;;;;7.80;2.75;;;;;;;2.91;100.00;99048.73;1697617;84;21316;-78
2022/01/05 06:18:18;;;;;;;4.37;2.35;;;;;;;2.92;100.00;99043.20;1697899;84;21301;-77
2022/01/05 06:21:24;;;;;;;5.45;2.65;;;;;;;2.95;100.00;99033.91;1697245;84;21642;-76
2022/01/05 06:24:29;;;;;;;5.20;2.60;;;;;;;2.99;100.00;99029.89;1688998;83;21247;-78
2022/01/05 06:27:35;;;;;;;4.20;2.35;;;;;;;3.01;100.00;99023.81;1677905;84;21915;-77
2022/01/05 06:30:41;;;;;;;7.50;2.80;;;;;;;3.05;100.00;99030.59;1712054;83;21197;-82
2022/01/05 06:33:46;;;;;;;5.78;2.22;;;;;;;3.07;100.00;99038.05;1683409;83;21292;-83
2022/01/05 06:36:52;;;;;;;5.37;2.30;;;;;;;3.12;100.00;99026.27;1689829;82;21259;-77
2022/01/05 06:39:58;;;;;;;6.90;2.75;;;;;;;3.15;100.00;99027.78;1735799;80;21274;-78
2022/01/05 06:43:03;;;;;;;4.72;2.72;;;;;;;3.17;100.00;99042.00;1706529;83;21287;-83
2022/01/05 06:46:09;;;;;;;5.25;2.40;;;;;;;3.17;100.00;99037.44;1712503;83;21959;-83
2022/01/05 06:49:14;;;;;;;4.85;2.58;;;;;;;3.19;100.00;99038.11;1720834;83;21186;-84
2022/01/05 06:52:20;;;;;;;4.47;2.40;;;;;;;3.23;100.00;99038.14;1719903;82;21303;-82
2022/01/05 06:55:27;;;;;;;5.97;2.55;;;;;;;3.26;100.00;99039.18;1735423;82;21695;-83
2022/01/05 06:58:32;;;;;;;8.20;2.60;;;;;;;3.31;100.00;99044.95;1730612;82;21279;-83
2022/01/05 07:01:38;;;;;;;6.85;2.67;;;;;;;3.36;100.00;99049.03;1732672;82;21177;-83
2022/01/05 07:04:43;;;;;;;7.53;3.40;;;;;;;3.44;100.00;99042.32;1731310;82;21267;-77
2022/01/05 07:07:49;;;;;;;8.95;3.35;;;;;;;3.48;100.00;99039.61;1732023;82;21301;-84
2022/01/05 07:10:55;;;;;;;10.68;3.40;;;;;;;3.58;100.00;99031.73;1729406;82;21212;-79
2022/01/05 07:14:01;;;;;;;8.83;2.55;;;;;;;3.68;100.00;99037.52;1730264;82;21181;-76
2022/01/05 07:17:06;;;;;;;4.15;2.20;;;;;;;3.76;100.00;99034.82;1731701;82;21698;-83
2022/01/05 07:20:13;;;;;;;7.25;2.90;;;;;;;3.80;99.57;99037.55;1731076;82;21673;-83
2022/01/05 07:23:18;;;;;;;6.12;2.60;;;;;;;3.84;99.21;99041.11;1728724;82;21658;-76
2022/01/05 07:26:24;;;;;;;6.50;2.33;;;;;;;3.89;98.98;99033.02;1728683;82;21888;-77
2022/01/05 07:29:29;;;;;;;5.62;2.40;;;;;;;3.92;98.56;99038.95;1732335;82;21295;-76
2022/01/05 07:32:35;;;;;;;5.47;2.83;;;;;;;3.95;98.25;99032.34;1740628;82;21192;-82
2022/01/05 07:35:40;;;;;;;2.98;2.10;;;;;;;3.98;98.04;99027.97;1729907;80;21967;-83
2022/01/05 07:38:46;;;;;;;6.40;2.90;;;;;;;4.03;98.04;99025.09;1731756;82;21216;-83
2022/01/05 07:41:51;;;;;;;6.70;2.17;;;;;;;4.14;97.82;99009.07;1735894;82;21361;-84
2022/01/05 07:44:58;;;;;;;7.78;2.98;;;;;;;4.18;97.31;99013.11;1702185;83;21892;-76
2022/01/05 07:48:04;;;;;;;4.50;2.35;;;;;;;4.25;96.96;99007.38;1713896;82;21181;-77
2022/01/05 07:51:10;;;;;;;7.17;2.08;;;;;;;4.27;96.70;99001.79;1717018;82;21204;-82
2022/01/05 07:54:16;;;;;;;6.92;3.00;;;;;;;4.26;96.58;99007.72;1725605;82;21351;-77
2022/01/05 07:57:22;;;;;;;5.97;2.35;;;;;;;4.27;96.67;99010.75;1705126;82;21221;-77
2022/01/05 08:00:28;;;;;;;7.50;2.85;;;;;;;4.29;96.85;99021.44;1710660;82;21237;-82
2022/01/05 08:03:34;;;;;;;10.23;4.47;;;;;;;4.33;97.19;99014.16;1718748;82;21415;-83
2022/01/05 08:06:41;;;;;;;9.00;3.62;;;;;;;4.42;97.33;99015.50;1723702;82;21279;-77
2022/01/05 08:09:47;;;;;;;6.42;2.80;;;;;;;4.50;97.35;99030.41;1707657;82;21362;-83
2022/01/05 08:12:54;;;;;;;7.17;3.20;;;;;;;4.59;97.31;99033.45;1712466;83;21366;-81
2022/01/05 08:15:59;;;;;;;7.40;2.90;;;;;;;4.66;97.03;99041.27;1715386;83;21634;-77
2022/01/05 08:19:05;;;;;;;7.12;4.10;;;;;;;4.72;96.88;99037.02;1709753;83;21326;-77
2022/01/05 08:22:10;;;;;;;10.72;3.75;;;;;;;4.74;96.76;99033.63;1706529;83;21290;-78
2022/01/05 08:25:17;;;;;;;8.53;3.52;;;;;;;4.77;96.76;99036.84;1705041;82;21810;-82
2022/01/05 08:28:23;;;;;;;7.42;3.77;;;;;;;4.86;96.85;99029.05;1715935;83;21290;-81
2022/01/05 08:31:28;;;;;;;7.53;2.83;;;;;;;4.93;96.68;99025.64;1712384;83;21418;-77
2022/01/05 08:34:33;;;;;;;7.10;2.85;;;;;;;4.99;96.36;99019.56;1711250;83;21200;-81
2022/01/05 08:37:44;;;;;;;5.80;3.22;;;;;;;5.00;96.33;99022.59;1720874;83;21245;-76
2022/01/05 08:40:51;;;;;;;7.58;3.37;;;;;;;5.10;96.45;99018.67;1681336;84;21638;-77
2022/01/05 08:43:57;;;;;;;5.83;3.22;;;;;;;5.20;96.03;99025.26;1669898;85;21381;-80
2022/01/05 08:47:03;;;;;;;7.03;3.72;;;;;;;5.27;95.53;99016.78;1705341;83;21301;-82
2022/01/05 08:50:09;;;;;;;6.47;3.35;;;;;;;5.28;95.27;99014.40;1706517;82;21298;-83
2022/01/05 08:53:15;;;;;;;8.23;3.80;;;;;;;5.29;95.31;99014.73;1684304;83;24751;-77
2022/01/05 08:56:23;;;;;;;7.75;3.30;;;;;;;5.28;95.50;99021.18;1657563;85;21305;-81
2022/01/05 08:59:28;;;;;;;8.55;3.90;;;;;;;5.29;95.66;99012.02;1677337;83;21334;-76
2022/01/05 09:02:34;;;;;;;11.33;5.42;;;;;;;5.34;95.81;99008.78;1680931;83;21176;-81
2022/01/05 09:05:34;;;;;;;9.13;4.37;;;;;;;5.44;96.01;99012.65;1686405;83;21339;-81
2022/01/05 09:08:41;;;;;;;8.85;4.53;;;;;;;5.63;96.24;99002.73;1677371;85;21733;-81
2022/01/05 09:11:49;;;;;;;7.87;4.50;;;;;;;5.77;95.86;98997.92;1669287;85;21345;-81
2022/01/05 09:14:53;;;;;;;11.08;4.08;;;;;;;5.88;95.73;99001.61;1673328;84;21382;-80
2022/01/05 09:17:58;;;;;;;13.70;4.78;;;;;;;5.99;95.28;98999.02;1680866;84;21350;-81
2022/01/05 09:21:04;;;;;;;8.58;4.42;;;;;;;6.03;94.78;98999.52;1692253;83;21222;-81
2022/01/05 09:24:11;;;;;;;9.95;4.20;;;;;;;6.06;94.83;98998.62;1665338;84;21651;-82
2022/01/05 09:27:16;;;;;;;9.70;4.58;;;;;;;6.15;94.83;98999.42;1696201;83;21887;-81
2022/01/05 09:30:22;;;;;;;11.97;5.47;;;;;;;6.20;94.58;98987.51;1675922;84;21319;-81
2022/01/05 09:33:27;;;;;;;13.10;4.97;;;;;;;6.22;94.32;99003.13;1688796;83;21304;-77
2022/01/05 09:36:40;;;;;;;9.93;4.50;;;;;;;6.17;94.11;99007.41;1678890;84;21212;-77
2022/01/05 09:43:03;;;;;;;5.72;4.00;;;;;;;6.09;94.65;98979.79;1706231;82;21299;-82
2022/01/05 09:46:19;;;;;;;11.45;4.67;;;;;;;5.99;95.01;98976.47;1714787;82;21282;-77
2022/01/05 09:49:42;;;;;;;18.23;4.30;;;;;;;5.93;95.46;98974.45;1726962;82;21176;-81
2022/01/05 09:52:51;;;;;;;8.75;4.28;;;;;;;5.94;96.19;98968.02;1713217;82;21295;-76
2022/01/05 09:56:01;;;;;;;10.45;5.20;;;;;;;5.93;96.65;98964.95;1711143;82;21223;-76
2022/01/05 09:59:07;;;;;;;13.13;4.67;;;;;;;5.94;97.24;98968.02;1688710;83;21307;-78
2022/01/05 10:02:13;;;;;;;11.05;5.08;;;;;;;5.90;97.87;98957.48;1686725;83;21316;-82
2022/01/05 10:05:20;;;;;;;14.40;6.50;;;;;;;5.90;98.43;98953.41;1697392;83;21207;-76
2022/01/05 10:08:24;;;;;;;19.15;8.38;;;;;;;5.90;99.05;98960.70;1698674;83;21835;-77
2022/01/05 10:11:29;;;;;;;13.20;7.17;;;;;;;5.94;99.55;98959.88;1678779;82;21332;-81
2022/01/05 10:14:34;;;;;;;13.88;6.20;;;;;;;5.97;99.94;98952.72;1705355;82;21742;-77
2022/01/05 10:17:41;;;;;;;14.53;6.97;;;;;;;5.98;100.00;98966.64;1695110;84;21205;-78
2022/01/05 10:20:47;;;;;;;12.15;6.97;;;;;;;6.02;100.00;98965.23;1699620;82;21221;-81
2022/01/05 10:23:58;;;;;;;14.53;9.38;;;;;;;6.02;100.00;98960.67;1702013;82;21495;-82
2022/01/05 10:27:03;;;;;;;27.22;12.10;;;;;;;6.04;100.00;98954.54;1700062;82;21336;-82
2022/01/05 10:30:12;;;;;;;24.70;11.65;;;;;;;6.05;100.00;98945.88;1702255;82;21351;-77
2022/01/05 10:33:18;;;;;;;25.65;11.30;;;;;;;6.02;100.00;98929.46;1698189;82;21335;-76
2022/01/05 10:36:23;;;;;;;20.48;10.65;;;;;;;6.05;100.00;98922.81;1705718;82;21499;-81
2022/01/05 10:39:42;;;;;;;20.00;9.13;;;;;;;6.09;100.00;98922.78;1698081;82;21308;-81
2022/01/05 10:42:49;;;;;;;22.75;10.38;;;;;;;6.12;100.00;98915.64;1700950;82;21276;-80
2022/01/05 10:45:57;;;;;;;19.70;9.25;;;;;;;6.16;100.00;98903.36;1702028;82;21351;-82
2022/01/05 10:49:04;;;;;;;20.50;11.15;;;;;;;6.21;100.00;98905.05;1702433;82;21324;-81
2022/01/05 10:52:33;;;;;;;21.35;10.32;;;;;;;6.20;100.00;98896.55;1703647;82;21311;-80
2022/01/05 10:55:40;;;;;;;26.25;11.55;;;;;;;6.22;100.00;98890.95;1701296;82;21800;-81
2022/01/05 10:58:50;;;;;;;26.52;11.28;;;;;;;6.23;100.00;98892.12;1711017;82;21315;-80
2022/01/05 11:01:56;;;;;;;19.85;10.95;;;;;;;6.24;100.00;98897.03;1702403;82;21338;-81
2022/01/05 11:05:05;;;;;;;22.58;10.90;;;;;;;6.27;100.00;98911.61;1719746;82;21207;-81
2022/01/05 11:08:16;;;;;;;27.30;12.43;;;;;;;6.27;100.00;98900.23;1713484;82;21215;-81
2022/01/05 11:11:50;;;;;;;28.77;12.18;;;;;;;6.30;100.00;98911.23;1692979;83;21335;-81
2022/01/05 11:14:54;;;;;;;21.90;10.38;;;;;;;6.33;100.00;98928.01;1712904;82;21887;-76
2022/01/05 11:18:22;;;;;;;17.45;9.18;;;;;;;6.33;100.00;98926.65;1714241;82;21294;-76
2022/01/05 11:21:27;;;;;;;22.32;11.50;;;;;;;6.31;100.00;98921.09;1701464;83;21240;-76
2022/01/05 11:24:33;;;;;;;19.27;10.13;;;;;;;6.31;100.00;98922.45;1721172;82;22474;-76
2022/01/05 11:27:38;;;;;;;22.25;11.60;;;;;;;6.42;100.00;98920.64;1701482;83;21303;-76
2022/01/05 11:30:45;;;;;;;23.12;12.03;;;;;;;6.48;100.00;98918.53;1694790;83;21746;-76
2022/01/05 11:33:51;;;;;;;32.00;13.05;;;;;;;6.57;100.00;98912.52;1698386;83;21837;-77
2022/01/05 11:36:56;;;;;;;28.62;13.30;;;;;;;6.61;100.00;98913.32;1693475;83;21192;-77
2022/01/05 11:40:03;;;;;;;25.25;12.82;;;;;;;6.68;100.00;98913.93;1697527;82;21822;-77
2022/01/05 11:43:13;;;;;;;28.00;11.88;;;;;;;6.71;100.00;98914.41;1707447;82;21673;-77
2022/01/05 11:46:25;;;;;;;30.45;13.22;;;;;;;6.74;100.00;98903.19;1694174;83;21331;-75
2022/01/05 11:49:35;;;;;;;28.07;13.25;;;;;;;6.77;100.00;98895.16;1707988;82;21493;-77
2022/01/05 11:53:04;;;;;;;22.65;12.60;;;;;;;6.86;100.00;98894.04;1695790;83;21174;-76
2022/01/05 11:56:14;;;;;;;26.07;12.63;;;;;;;6.91;100.00;98893.80;1714070;82;21291;-76
2022/01/05 11:59:35;;;;;;;21.02;10.75;;;;;;;6.94;100.00;98886.31;1688602;83;21308;-77
2022/01/05 12:02:47;;;;;;;;;;;;;;;7.01;100.00;98885.88;1718858;82;21298;-76
2022/01/05 12:06:14;;;;;;;22.10;11.00;;;;;;;6.93;100.00;98896.35;1693663;83;20661;-76
2022/01/05 12:09:31;;;;;;;28.47;12.70;;;;;;;6.88;100.00;98904.23;1702949;83;21284;-76
2022/01/05 12:12:37;;;;;;;26.62;13.08;;;;;;;6.86;100.00;98896.23;1692677;83;21347;-76
2022/01/05 12:15:56;;;;;;;55.80;22.02;;;;;;;6.84;100.00;98891.52;1718374;82;21318;-76
2022/01/05 12:19:17;;;;;;;37.50;18.23;;;;;;;6.82;100.00;98890.88;1682251;84;21294;-76
2022/01/05 12:22:25;;;;;;;35.50;13.93;;;;;;;6.89;100.00;98886.36;1689238;84;21292;-76
2022/01/05 12:25:31;;;;;;;24.87;12.28;;;;;;;6.91;100.00;98887.00;1713865;82;21812;-76
2022/01/05 12:28:38;;;;;;;25.12;12.50;;;;;;;6.91;100.00;98888.36;1721957;82;21278;-79
2022/01/05 12:32:03;;;;;;;24.37;12.93;;;;;;;6.88;100.00;98887.92;1694125;83;21171;-80
2022/01/05 12:35:12;;;;;;;27.40;12.65;;;;;;;6.85;100.00;98893.72;1703285;83;21751;-79
2022/01/05 12:38:17;;;;;;;27.52;12.63;;;;;;;6.83;100.00;98894.44;1695716;83;21331;-80
2022/01/05 12:41:52;;;;;;;26.65;12.37;;;;;;;6.79;100.00;98885.80;1710867;82;21341;-80
2022/01/05 12:44:57;;;;;;;23.73;12.60;;;;;;;6.76;100.00;98882.61;1698988;83;21288;-80
2022/01/05 12:48:04;;;;;;;22.70;11.65;;;;;;;6.65;100.00;98889.35;1717792;82;21302;-79
2022/01/05 12:51:29;;;;;;;26.65;12.75;;;;;;;6.52;100.00;98885.06;1684617;83;21932;-80
2022/01/05 12:54:41;;;;;;;26.62;12.50;;;;;;;6.43;100.00;98899.75;1678875;83;21320;-79
2022/01/05 12:57:44;;;;;;;;;;;;;;;6.36;100.00;98904.57;1693909;83;21301;-80
2022/01/05 13:00:51;;;;;;;29.07;14.23;;;;;;;6.32;100.00;98911.39;1689735;83;20308;-79
2022/01/05 13:03:57;;;;;;;25.77;12.18;;;;;;;6.26;100.00;98905.86;1690515;83;21285;-79
2022/01/05 13:07:04;;;;;;;30.30;13.90;;;;;;;6.23;100.00;98908.93;1696046;83;21286;-80
2022/01/05 13:10:11;;;;;;;33.88;14.03;;;;;;;6.19;100.00;98916.59;1695747;83;21722;-80
2022/01/05 13:13:17;;;;;;;26.07;13.70;;;;;;;6.20;100.00;98919.63;1697076;83;21306;-76
2022/01/05 13:16:22;;;;;;;28.17;13.08;;;;;;;6.26;100.00;98909.94;1696792;82;21367;-76
2022/01/05 13:19:59;;;;;;;29.55;14.47;;;;;;;6.31;100.00;98904.80;1698736;82;21276;-77
2022/01/05 13:23:03;;;;;;;31.37;15.18;;;;;;;6.27;100.00;98887.17;1710465;82;21290;-76
2022/01/05 13:26:18;;;;;;;41.73;17.10;;;;;;;6.19;100.00;98896.22;1708891;82;21806;-80
2022/01/05 13:29:28;;;;;;;45.55;16.25;;;;;;;6.16;100.00;98892.51;1703457;83;21432;-76
2022/01/05 13:32:36;;;;;;;32.93;15.55;;;;;;;6.20;100.00;98899.78;1699136;83;21304;-79
2022/01/05 13:35:42;;;;;;;29.87;14.53;;;;;;;6.24;100.00;98897.88;1720556;82;21298;-79
2022/01/05 13:38:47;;;;;;;28.67;14.45;;;;;;;6.27;100.00;98894.80;1731750;82;21204;-79
2022/01/05 13:42:03;;;;;;;35.55;16.55;;;;;;;6.27;100.00;98917.89;1700991;83;21369;-76
2022/01/05 13:45:09;;;;;;;26.30;14.73;;;;;;;6.24;100.00;98934.53;1697831;84;21199;-80
2022/01/05 13:48:19;;;;;;;28.15;15.58;;;;;;;6.19;100.00;98928.80;1701741;83;21888;-76
2022/01/05 13:51:27;;;;;;;27.27;14.13;;;;;;;6.11;100.00;98920.72;1688095;84;21200;-79
2022/01/05 13:54:33;;;;;;;33.30;16.62;;;;;;;6.07;100.00;98931.60;1723668;82;21265;-79
2022/01/05 13:57:41;;;;;;;27.62;15.80;;;;;;;6.01;100.00;98942.67;1723511;82;21787;-76
2022/01/05 14:00:46;;;;;;;32.42;17.65;;;;;;;5.98;100.00;98946.28;1741615;82;21318;-75
2022/01/05 14:03:58;;;;;;;33.13;18.37;;;;;;;5.95;100.00;98947.99;1723150;82;21166;-78
2022/01/05 14:07:08;;;;;;;31.05;17.37;;;;;;;5.95;100.00;98945.28;1714305;82;21219;-76
2022/01/05 14:10:19;;;;;;;38.40;16.42;;;;;;;5.95;100.00;98942.56;1716566;83;21291;-78
2022/01/05 14:13:26;;;;;;;29.10;16.02;;;;;;;5.98;100.00;98950.36;1715725;83;21726;-79
2022/01/05 14:16:44;;;;;;;26.55;16.15;;;;;;;5.99;100.00;98949.33;1681550;83;21813;-76
2022/01/05 14:19:53;;;;;;;29.18;18.20;;;;;;;5.99;100.00;98958.31;1716643;83;22157;-77
2022/01/05 14:23:11;;;;;;;30.15;16.80;;;;;;;6.05;100.00;98966.23;1716737;83;22213;-78
2022/01/05 14:26:16;;;;;;;27.27;16.10;;;;;;;6.07;100.00;98976.39;1716599;83;21355;-78
2022/01/05 14:29:23;;;;;;;26.48;16.02;;;;;;;6.06;100.00;98971.99;1717338;83;21169;-79
2022/01/05 14:32:28;;;;;;;31.95;17.35;;;;;;;6.02;100.00;98973.38;1716960;83;21336;-78
2022/01/05 14:35:36;;;;;;;26.55;15.98;;;;;;;6.00;100.00;98974.08;1699805;83;21315;-76